Airfield :
LOGIN :

Register | Disclaimer

   EN    FR    IT 

 










Legend :    VFR   Marginal VFR   IFR   Intensive IFR   Very Intensive IFR
Visi :
Ceiling :
>= 8 km
>= 3000ft
5 to 8 km
1000 to 3000 ft
1500m to 5 km
500 to 1000 ft
800 to 1500m
200 to 500 ft
< 800m
< 200 ft
Symbols :   Thunderstorms  Fog  Heavy snow  Heavy precipitations  Wind > 20 kt
SIGMETs :     Misc.  Thunderstorms  Icing  Turbulence  Mountain Waves  Volcanic Ashes






- Airport Elevation : 325 ft
- IATA code : BES


LFRB - Brest

CURRENT METAR :
  • 200700Z AUTO 15015KT 9999 SCT013 SCT020 OVC100 07/05 Q1006 TEMPO 16015G25KT BKN010

EXPIRED METARs :
  • 200630Z AUTO 15014KT 9999 OVC013 07/05 Q1006 TEMPO 16015G25KT BECMG SCT011 BKN020 OVC030
  • 200600Z AUTO 15015KT 9999 OVC011 07/06 Q1006 TEMPO 16015G25KT
  • 200530Z AUTO 14015G25KT 9999 SCT011 BKN019 BKN026 08/06 Q1007 TEMPO BKN010
  • 200500Z AUTO 14016KT 9999 SCT011 BKN025 OVC032 08/06 Q1007 TEMPO 16015G25KT BKN010

TAF TAF LFRB
Valid from the 20 at 06:00 until the 21 at 12:00 UTC


200500Z 2006/2112 15016KT 9999 SCT011 BKN020 OVC030
TEMPO 2006/2008 16015G25KT -RA BKN010
BECMG 2020/2022 16016G26KT 3000 RA BKN005
BECMG 2107/2109 18010KT 9999 SHRA BKN015
BECMG 2110/2112 RA OVC015
ATIS : +33 2 98 32 02 71



MET'MAP, your aeronautical weather chart ! - Copyright ORBIFLY December 2007 - Disclaimer

ORBIFLY MET'MAP TEAM :

Programming & Development : Alexandra Zaïnal
Concept & Development : Baudouin d'Aumeries
Co-Development & Prog : Marc-Olivier Méhu
Technical & hardware support : Manuel Goepfert

Contact : metmap@orbifly.com




SOURCES & CREDITS :

   NOAA